Amsden, Ohio
Current Conditions -  °F | °C
As of 6:53 AM on Wednesday 28 Jan 2015 (Local Time) from KFDY Reporting Station
Haze Haze  
Wind Chill:   Ceiling: Unl
Heat Index:   Visibility: 6mi
Dew Point:   Wind: 0mph
Humidity: 84%   Direction: NA
Pressure: 30.33"   Gusts: NA
Location:  41.22°N, 83.33°W
Report Text: KFDY 281153Z AUTO 00000KT 6SM BR CLR M16/M18 A3033 RMK AO2 SLP283 I6000 T11561178 11128 21178 51021
Loading
Personal Weather Stations






























Interactive Weather Map New forecast layout! Learn more

10-Day Weather Forecast

Advertisements
Track Severe Weather on mobile